Time;durP1;ratioP1;P1;durP2;ratioP2;P2;SDS_P1;SDS_P2;PMS_P1;PMS_P2;Temp;Humidity;BMP_temperature;BMP_pressure;BME280_temperature;BME280_humidity;BME280_pressure;Samples;Min_cycle;Max_cycle;Signal;HPM_P1;HPM_P2
2022/06/07 00:08:41;;;;;;;3.33;1.98;;;24.50;50.00;;;;;;6229016;28;20025;-70
2022/06/07 00:11:43;;;;;;;2.90;1.92;;;24.40;50.40;;;;;;6271731;28;20358;-70
2022/06/07 00:14:49;;;;;;;2.80;1.60;;;24.30;50.80;;;;;;6262166;28;20438;-72
2022/06/07 00:17:51;;;;;;;2.80;1.70;;;24.20;51.20;;;;;;6271842;28;20021;-70
2022/06/07 00:20:52;;;;;;;5.95;1.35;;;24.20;51.30;;;;;;6275671;28;20083;-71
2022/06/07 00:24:34;;;;;;;2.42;1.70;;;24.20;51.50;;;;;;6246950;28;20040;-73
2022/06/07 00:27:51;;;;;;;2.88;1.55;;;24.20;51.80;;;;;;6207796;28;20501;-72
2022/06/07 00:30:55;;;;;;;3.72;1.75;;;24.10;52.10;;;;;;6240957;28;20061;-72
2022/06/07 00:33:56;;;;;;;2.53;1.63;;;24.10;52.30;;;;;;6211719;28;20033;-71
2022/06/07 01:46:12;;;;;;;7.20;1.63;;;24.00;53.40;;;;;;6214348;28;20026;-71
2022/06/07 01:49:21;;;;;;;2.22;1.40;;;23.90;53.20;;;;;;6225287;28;20407;-71
2022/06/07 01:52:29;;;;;;;3.53;1.98;;;23.90;53.20;;;;;;6243161;28;20046;-71
2022/06/07 01:55:34;;;;;;;2.30;1.90;;;23.90;53.10;;;;;;6244463;28;20049;-72
2022/06/07 02:03:03;;;;;;;3.05;1.80;;;23.90;53.50;;;;;;6244231;28;20033;-72
2022/06/07 02:06:08;;;;;;;3.75;1.85;;;23.80;53.50;;;;;;6257752;28;20048;-71
2022/06/07 02:09:10;;;;;;;6.88;2.47;;;23.80;53.60;;;;;;6251129;28;20028;-71
2022/06/07 02:12:12;;;;;;;6.03;1.90;;;23.70;53.60;;;;;;6267442;28;20035;-71
2022/06/07 02:15:13;;;;;;;3.50;1.85;;;23.70;53.70;;;;;;6244711;28;20033;-71
2022/06/07 02:18:15;;;;;;;2.42;1.90;;;23.70;53.80;;;;;;6275395;28;20057;-72
2022/06/07 02:21:28;;;;;;;3.78;1.90;;;23.70;53.90;;;;;;6275829;28;20430;-72
2022/06/07 02:24:31;;;;;;;6.47;1.95;;;23.70;53.90;;;;;;6266077;28;20042;-72
2022/06/07 02:27:33;;;;;;;4.25;1.98;;;23.60;53.90;;;;;;6235812;28;20034;-72
2022/06/07 02:30:34;;;;;;;5.22;2.22;;;23.60;54.00;;;;;;6219300;28;20041;-72
2022/06/07 02:33:37;;;;;;;2.15;1.77;;;23.60;54.10;;;;;;6242673;28;20041;-72
2022/06/07 02:36:38;;;;;;;1.65;1.55;;;23.50;54.20;;;;;;6270948;28;20036;-71
2022/06/07 02:39:40;;;;;;;3.15;2.20;;;23.40;54.30;;;;;;6240435;28;20025;-72
2022/06/07 02:42:41;;;;;;;3.65;1.65;;;23.30;55.10;;;;;;6230032;28;20109;-71
2022/06/07 04:00:13;;;;;;;2.67;1.60;;;23.30;55.30;;;;;;6210659;28;20030;-71
2022/06/07 04:03:17;;;;;;;3.10;1.70;;;23.30;55.60;;;;;;6233369;28;20838;-71
2022/06/07 04:06:35;;;;;;;2.30;1.52;;;23.30;55.80;;;;;;6214312;28;20087;-71
2022/06/07 04:09:44;;;;;;;3.28;1.70;;;23.20;55.90;;;;;;6234256;28;20118;-71
2022/06/07 04:12:53;;;;;;;2.90;1.55;;;23.20;56.00;;;;;;6240063;28;20025;-71
2022/06/07 04:15:58;;;;;;;1.80;1.52;;;23.20;56.20;;;;;;6221097;28;20646;-70
2022/06/07 04:18:59;;;;;;;1.58;1.38;;;23.20;56.30;;;;;;6204966;28;20030;-70
2022/06/07 04:22:04;;;;;;;5.75;1.60;;;23.20;56.50;;;;;;6243064;28;20037;-71
2022/06/07 04:25:13;;;;;;;2.65;1.70;;;23.20;56.50;;;;;;6236573;28;20053;-70
2022/06/07 04:45:37;;;;;;;4.57;1.80;;;23.10;55.20;;;;;;6234778;28;20021;-71
2022/06/07 04:48:44;;;;;;;;;;;23.00;55.10;;;;;;6226905;28;20029;-71
2022/06/07 04:51:50;;;;;;;7.30;1.85;;;22.90;55.20;;;;;;6221786;28;19909;-71
2022/06/07 04:55:07;;;;;;;2.63;1.92;;;22.90;55.10;;;;;;6224094;28;20030;-69
2022/06/07 04:58:10;;;;;;;7.13;1.50;;;22.90;55.10;;;;;;6220203;28;20045;-71
2022/06/07 05:01:18;;;;;;;5.70;1.60;;;22.90;55.10;;;;;;6226823;28;20033;-71
2022/06/07 05:04:19;;;;;;;3.20;2.42;;;22.90;55.10;;;;;;6222213;28;20117;-70
2022/06/07 05:07:21;;;;;;;3.30;2.00;;;22.80;55.10;;;;;;6225659;28;20041;-71
2022/06/07 05:10:34;;;;;;;13.00;2.13;;;22.90;55.20;;;;;;6274866;28;20082;-70
2022/06/07 05:13:37;;;;;;;6.00;2.10;;;22.90;55.20;;;;;;6269053;28;20028;-71
2022/06/07 05:16:41;;;;;;;1.88;1.60;;;22.90;55.10;;;;;;6248320;28;20057;-71
2022/06/07 05:19:44;;;;;;;1.98;1.60;;;23.00;55.10;;;;;;6211938;28;20096;-69
2022/06/07 05:22:49;;;;;;;5.30;1.80;;;23.10;55.00;;;;;;6220034;28;20141;-70
2022/06/07 05:25:58;;;;;;;3.50;1.85;;;23.10;55.00;;;;;;6253456;28;20033;-72
2022/06/07 05:29:00;;;;;;;4.60;2.25;;;23.20;54.90;;;;;;6237409;28;20055;-71
2022/06/07 05:32:01;;;;;;;2.47;1.85;;;23.20;54.80;;;;;;6245061;28;20064;-71
2022/06/07 05:35:05;;;;;;;5.05;2.10;;;23.20;54.80;;;;;;6243717;28;20340;-70
2022/06/07 05:38:12;;;;;;;5.60;2.20;;;23.20;54.80;;;;;;6245256;28;20462;-70
2022/06/07 05:41:23;;;;;;;3.42;2.15;;;23.20;54.90;;;;;;6268565;28;20172;-72
2022/06/07 05:44:26;;;;;;;8.32;2.00;;;23.20;54.80;;;;;;6258221;28;20021;-71
2022/06/07 05:47:30;;;;;;;3.50;2.30;;;23.30;54.80;;;;;;6256187;28;20118;-71
2022/06/07 05:50:31;;;;;;;3.65;1.92;;;23.30;54.80;;;;;;6247835;28;20122;-71
2022/06/07 05:53:35;;;;;;;7.00;2.25;;;23.30;54.80;;;;;;6251906;28;20037;-72
2022/06/07 05:56:37;;;;;;;7.25;2.00;;;23.20;54.80;;;;;;6249106;28;20022;-72
2022/06/07 05:59:40;;;;;;;5.03;2.15;;;23.20;54.90;;;;;;6245035;28;20018;-72
2022/06/07 06:02:44;;;;;;;4.22;1.92;;;23.20;55.00;;;;;;6256167;28;20029;-72
2022/06/07 06:05:56;;;;;;;8.05;2.40;;;23.20;55.10;;;;;;6267515;28;20040;-72
2022/06/07 06:12:30;;;;;;;3.58;2.00;;;23.30;54.70;;;;;;6235794;28;20064;-72
2022/06/07 06:15:48;;;;;;;3.00;2.15;;;23.40;54.70;;;;;;6246337;28;20048;-72
2022/06/07 06:18:54;;;;;;;5.90;2.20;;;23.50;54.60;;;;;;6257030;28;20041;-71
2022/06/07 06:21:59;;;;;;;5.73;2.63;;;23.60;54.40;;;;;;6256712;28;20021;-72
2022/06/07 06:25:05;;;;;;;4.95;2.08;;;23.60;54.40;;;;;;6256613;28;20053;-71
2022/06/07 06:28:06;;;;;;;5.72;1.80;;;23.70;54.30;;;;;;6250135;28;20030;-72
2022/06/07 06:31:11;;;;;;;11.05;2.25;;;23.70;54.20;;;;;;6247170;28;20035;-72
2022/06/07 06:34:13;;;;;;;8.57;2.38;;;23.70;54.30;;;;;;6257755;28;20386;-76
2022/06/07 06:37:15;;;;;;;7.22;2.63;;;23.70;54.30;;;;;;6259333;28;20030;-77
2022/06/07 06:40:19;;;;;;;10.13;3.30;;;23.70;54.30;;;;;;6251109;28;20064;-76
2022/06/07 06:43:31;;;;;;;6.90;2.50;;;23.80;54.30;;;;;;6259337;28;20343;-73
2022/06/07 06:46:46;;;;;;;6.82;2.63;;;23.90;54.20;;;;;;6249631;28;20453;-73
2022/06/07 06:49:49;;;;;;;8.32;2.97;;;24.00;54.00;;;;;;6254040;28;20026;-71
2022/06/07 06:52:52;;;;;;;7.20;2.45;;;24.10;53.80;;;;;;6237639;28;20049;-72
2022/06/07 06:55:55;;;;;;;4.55;2.60;;;24.00;53.60;;;;;;6253104;28;20354;-72
2022/06/07 06:58:58;;;;;;;3.47;2.45;;;23.90;53.70;;;;;;6249187;28;20121;-72
2022/06/07 07:02:00;;;;;;;13.27;4.30;;;24.00;53.90;;;;;;6245639;28;20083;-72
2022/06/07 07:05:06;;;;;;;5.40;2.50;;;24.00;53.90;;;;;;6231403;28;20560;-72
2022/06/07 07:08:10;;;;;;;8.68;2.65;;;24.10;53.80;;;;;;6211539;28;20133;-72
2022/06/07 07:11:26;;;;;;;7.03;2.45;;;24.30;53.40;;;;;;6248997;28;20029;-73
2022/06/07 07:14:29;;;;;;;6.85;2.47;;;24.80;52.50;;;;;;6267257;28;20116;-71
2022/06/07 07:17:33;;;;;;;5.53;2.95;;;25.10;51.90;;;;;;6245958;28;20087;-72
2022/06/07 07:20:35;;;;;;;12.68;2.50;;;25.30;51.40;;;;;;6257040;28;20022;-71
2022/06/07 07:23:38;;;;;;;6.85;2.80;;;25.40;51.20;;;;;;6240430;28;20324;-72
2022/06/07 07:26:43;;;;;;;3.58;2.45;;;25.40;51.10;;;;;;6271079;28;20029;-71
2022/06/07 07:29:46;;;;;;;4.53;2.78;;;25.40;51.20;;;;;;6243013;28;20048;-71
2022/06/07 07:32:52;;;;;;;4.53;2.88;;;25.40;51.20;;;;;;6256810;28;20065;-71
2022/06/07 07:35:53;;;;;;;5.50;2.35;;;25.50;51.00;;;;;;6237197;28;20677;-72
2022/06/07 07:38:56;;;;;;;5.82;2.40;;;25.50;50.90;;;;;;6240337;28;20104;-73
2022/06/07 07:41:58;;;;;;;5.30;2.40;;;25.70;50.90;;;;;;6255066;28;20057;-71
2022/06/07 07:45:12;;;;;;;2.92;1.95;;;25.70;50.60;;;;;;6271634;28;20037;-71
2022/06/07 07:48:20;;;;;;;4.93;2.33;;;25.90;50.30;;;;;;6250583;28;20133;-73
2022/06/07 07:51:32;;;;;;;3.45;2.40;;;26.00;49.90;;;;;;6243540;28;20034;-72
2022/06/07 07:54:35;;;;;;;4.00;1.85;;;26.10;49.60;;;;;;6269100;28;20033;-72
2022/06/07 07:57:42;;;;;;;3.35;2.00;;;26.20;49.20;;;;;;6245233;28;20069;-71
2022/06/07 08:00:49;;;;;;;5.47;2.50;;;26.30;48.70;;;;;;6244534;28;20048;-71
2022/06/07 08:03:59;;;;;;;7.95;2.00;;;26.40;48.40;;;;;;6242122;28;20105;-71
2022/06/07 08:07:09;;;;;;;9.80;2.05;;;26.50;48.10;;;;;;6248904;28;20040;-72
2022/06/07 08:10:12;;;;;;;7.28;1.83;;;26.70;47.80;;;;;;6249470;28;20037;-72
2022/06/07 08:13:13;;;;;;;4.80;1.80;;;26.80;47.30;;;;;;6239733;28;20200;-71
2022/06/07 08:16:14;;;;;;;3.00;1.33;;;26.90;46.90;;;;;;6253868;28;20030;-71
2022/06/07 08:19:18;;;;;;;6.60;1.60;;;26.90;46.30;;;;;;6246646;28;20029;-71
2022/06/07 08:22:20;;;;;;;2.80;1.30;;;27.00;45.40;;;;;;6238483;28;20041;-71
2022/06/07 08:25:23;;;;;;;3.47;1.10;;;27.00;44.60;;;;;;6263670;28;20451;-72
2022/06/07 08:28:25;;;;;;;1.80;1.25;;;27.10;43.90;;;;;;6252513;28;20080;-72
2022/06/07 08:31:29;;;;;;;2.35;1.30;;;27.20;43.10;;;;;;6276753;28;20121;-71
2022/06/07 08:37:56;;;;;;;1.90;1.42;;;27.40;42.00;;;;;;6233014;28;20075;-72
2022/06/07 08:40:58;;;;;;;2.30;1.38;;;27.40;41.70;;;;;;6246189;28;20041;-70
2022/06/07 08:44:21;;;;;;;3.33;1.42;;;27.50;41.40;;;;;;6253594;28;20049;-71
2022/06/07 08:47:45;;;;;;;1.38;1.00;;;27.60;40.90;;;;;;6234750;28;20409;-71
2022/06/07 08:51:23;;;;;;;2.58;1.20;;;27.70;40.00;;;;;;6252564;28;20128;-72
2022/06/07 08:54:40;;;;;;;1.35;1.25;;;27.80;39.80;;;;;;6206355;28;20041;-72
2022/06/07 08:58:05;;;;;;;1.88;0.98;;;28.00;39.50;;;;;;6205829;28;20045;-72
2022/06/07 09:01:27;;;;;;;1.45;1.13;;;28.00;38.80;;;;;;6212134;28;20471;-71
2022/06/07 09:04:31;;;;;;;2.80;1.40;;;28.10;37.70;;;;;;6215263;28;20026;-72
2022/06/07 09:07:34;;;;;;;2.17;0.85;;;28.20;37.20;;;;;;6212679;28;20038;-71
2022/06/07 09:14:11;;;;;;;1.88;1.02;;;28.30;37.10;;;;;;6144924;28;20495;-72
2022/06/07 09:17:17;;;;;;;4.10;1.00;;;28.30;37.40;;;;;;6127048;29;20126;-71
2022/06/07 09:20:22;;;;;;;3.55;0.90;;;28.30;37.10;;;;;;6138697;29;20089;-71
2022/06/07 09:23:46;;;;;;;1.50;0.95;;;28.30;36.30;;;;;;6132585;29;20579;-72
2022/06/07 09:26:47;;;;;;;3.47;0.90;;;28.30;35.80;;;;;;6128010;29;20032;-71
2022/06/07 09:29:59;;;;;;;1.25;0.95;;;28.30;35.50;;;;;;6116976;29;20044;-70
2022/06/07 09:33:26;;;;;;;2.30;1.13;;;28.30;35.40;;;;;;6125652;29;20347;-73
2022/06/07 09:36:30;;;;;;;1.55;0.90;;;28.30;35.60;;;;;;6114576;29;20458;-72
2022/06/07 09:39:39;;;;;;;2.38;1.58;;;28.30;35.50;;;;;;6110296;29;20036;-71
2022/06/07 09:42:40;;;;;;;0.90;0.90;;;28.30;35.40;;;;;;6109709;29;20477;-72
2022/06/07 09:45:44;;;;;;;3.90;1.10;;;28.40;35.20;;;;;;6103677;29;20365;-72
2022/06/07 10:07:01;;;;;;;1.05;0.82;;;28.50;33.30;;;;;;6212129;28;20033;-72
2022/06/07 10:10:39;;;;;;;1.23;0.88;;;28.50;32.90;;;;;;6214780;28;20451;-71
2022/06/07 10:13:46;;;;;;;1.50;0.73;;;28.50;32.30;;;;;;6210839;28;20456;-71
2022/06/07 10:17:20;;;;;;;1.65;0.63;;;28.50;31.40;;;;;;6217078;28;20548;-71
2022/06/07 10:20:41;;;;;;;9.13;0.90;;;28.60;30.70;;;;;;6172494;28;20039;-73
2022/06/07 10:23:45;;;;;;;2.15;0.77;;;28.60;30.50;;;;;;6156196;28;20073;-73
2022/06/07 10:26:58;;;;;;;1.20;0.63;;;28.70;30.10;;;;;;6173258;28;20046;-72
2022/06/07 10:30:17;;;;;;;3.10;1.02;;;28.80;29.80;;;;;;6172339;28;20101;-71
2022/06/07 10:33:55;;;;;;;1.20;0.70;;;28.80;29.50;;;;;;6171011;28;20038;-72
2022/06/07 10:37:19;;;;;;;0.90;0.60;;;28.90;29.70;;;;;;6172384;28;20062;-71
2022/06/07 10:40:35;;;;;;;2.25;0.90;;;28.90;29.30;;;;;;6169337;28;20070;-72
2022/06/07 10:43:51;;;;;;;0.77;0.70;;;28.90;29.20;;;;;;6155785;28;20039;-71
2022/06/07 10:46:52;;;;;;;1.30;1.00;;;28.90;29.20;;;;;;6156542;28;20037;-71
2022/06/07 10:50:26;;;;;;;1.13;0.77;;;28.90;29.10;;;;;;6166763;28;20035;-71
2022/06/07 10:53:40;;;;;;;0.88;0.68;;;29.00;28.80;;;;;;6239609;28;20152;-71
2022/06/07 10:56:49;;;;;;;0.95;0.85;;;28.90;28.90;;;;;;6222129;28;20140;-71
2022/06/07 10:59:52;;;;;;;5.60;1.08;;;28.90;29.30;;;;;;6241763;28;20079;-72
2022/06/07 11:03:05;;;;;;;1.00;0.75;;;29.00;29.40;;;;;;6238758;28;20034;-73
2022/06/07 11:09:48;;;;;;;1.60;0.75;;;30.70;26.90;;;;;;6236252;28;20049;-72
2022/06/07 11:12:55;;;;;;;0.60;0.57;;;32.10;25.70;;;;;;6233280;28;20037;-71
2022/06/07 11:16:28;;;;;;;1.85;0.90;;;33.10;24.70;;;;;;6238154;28;20069;-72
2022/06/07 11:19:31;;;;;;;0.70;0.70;;;34.00;23.70;;;;;;6218984;28;20045;-73
2022/06/07 11:22:37;;;;;;;0.60;0.60;;;34.50;23.00;;;;;;6231277;28;20133;-73
2022/06/07 11:25:57;;;;;;;4.35;0.80;;;34.80;22.80;;;;;;6220331;28;20044;-72
2022/06/07 11:29:06;;;;;;;5.57;1.50;;;35.10;21.90;;;;;;6217169;28;20068;-72
2022/06/07 11:32:42;;;;;;;1.08;0.98;;;35.40;21.40;;;;;;6237278;28;20093;-71
2022/06/07 11:35:44;;;;;;;1.10;0.60;;;35.50;21.50;;;;;;6211311;28;20098;-72
2022/06/07 11:38:57;;;;;;;1.17;0.47;;;35.90;21.50;;;;;;6205847;28;20029;-72
2022/06/07 11:42:19;;;;;;;1.50;0.98;;;35.90;21.30;;;;;;6247242;28;20193;-71
2022/06/07 11:45:25;;;;;;;0.50;0.50;;;36.00;21.00;;;;;;6249041;28;20034;-74
2022/06/07 11:48:36;;;;;;;0.57;0.52;;;36.10;20.80;;;;;;6249199;28;20041;-72
2022/06/07 11:51:37;;;;;;;0.85;0.40;;;36.20;20.60;;;;;;6218088;28;20037;-73
2022/06/07 11:54:45;;;;;;;1.13;0.60;;;36.20;20.60;;;;;;6214798;28;20371;-71
2022/06/07 11:58:04;;;;;;;1.20;0.65;;;36.00;20.70;;;;;;6215278;28;20034;-72
2022/06/07 12:01:23;;;;;;;0.52;0.52;;;36.10;20.70;;;;;;6216951;28;20343;-72
2022/06/07 12:05:12;;;;;;;1.98;0.73;;;36.20;20.00;;;;;;6218512;28;20045;-72
2022/06/07 12:08:42;;;;;;;1.17;0.60;;;36.30;19.70;;;;;;6253909;28;20045;-73
2022/06/07 12:11:43;;;;;;;0.73;0.60;;;36.30;19.80;;;;;;6229227;28;20482;-72
2022/06/07 12:14:49;;;;;;;0.85;0.73;;;36.40;19.60;;;;;;6229230;28;20065;-71
2022/06/07 12:17:58;;;;;;;0.65;0.50;;;36.40;19.30;;;;;;6232691;28;20375;-71
2022/06/07 12:21:04;;;;;;;1.33;0.65;;;36.60;19.30;;;;;;6221067;28;20060;-71
2022/06/07 12:24:14;;;;;;;0.80;0.50;;;36.70;19.20;;;;;;6255912;28;20069;-71
2022/06/07 12:27:32;;;;;;;1.67;0.65;;;36.70;19.30;;;;;;6263960;28;20482;-71
2022/06/07 12:30:36;;;;;;;1.57;0.60;;;36.80;19.00;;;;;;6254906;28;20092;-71
2022/06/07 12:33:37;;;;;;;1.70;0.80;;;36.90;19.10;;;;;;6249340;28;20025;-71
2022/06/07 12:36:41;;;;;;;1.15;0.63;;;36.90;18.90;;;;;;6226645;28;20255;-71
2022/06/07 12:39:53;;;;;;;0.60;0.60;;;36.80;18.90;;;;;;6251052;28;20048;-72
2022/06/07 12:42:55;;;;;;;2.53;0.60;;;36.60;18.80;;;;;;6229071;28;20038;-72
2022/06/07 12:45:58;;;;;;;3.28;0.60;;;36.50;18.80;;;;;;6214221;28;20486;-72
2022/06/07 12:48:59;;;;;;;1.70;0.75;;;36.50;19.30;;;;;;6212057;28;20036;-72
2022/06/07 12:52:06;;;;;;;1.23;0.65;;;36.60;18.80;;;;;;6213361;28;20030;-72
2022/06/07 12:55:26;;;;;;;1.08;0.98;;;36.90;18.60;;;;;;6213797;28;20041;-71
2022/06/07 12:58:31;;;;;;;1.67;0.73;;;37.30;18.40;;;;;;6241990;28;20037;-73
2022/06/07 13:01:39;;;;;;;2.35;0.82;;;37.60;18.10;;;;;;6225124;28;20876;-72
2022/06/07 13:04:56;;;;;;;0.98;0.60;;;37.80;17.90;;;;;;6217441;28;20404;-71
2022/06/07 13:08:00;;;;;;;0.65;0.52;;;38.20;17.70;;;;;;6247720;28;20121;-72
2022/06/07 13:11:04;;;;;;;0.63;0.50;;;38.90;17.50;;;;;;6215043;28;20092;-72
2022/06/07 13:14:06;;;;;;;3.20;0.70;;;39.70;17.30;;;;;;6202172;28;20037;-71
2022/06/07 13:17:51;;;;;;;0.80;0.80;;;40.50;16.90;;;;;;6219530;28;20033;-71
2022/06/07 13:21:05;;;;;;;1.40;0.75;;;41.40;16.40;;;;;;6212244;28;20030;-73
2022/06/07 13:24:21;;;;;;;1.73;0.80;;;42.10;15.80;;;;;;6210781;28;20093;-72
2022/06/07 13:27:43;;;;;;;1.00;0.70;;;42.30;15.60;;;;;;6220605;28;20057;-73
2022/06/07 13:30:46;;;;;;;1.17;0.52;;;42.50;15.30;;;;;;6210678;28;20038;-71
2022/06/07 13:34:22;;;;;;;0.95;0.75;;;42.80;14.80;;;;;;6216036;28;20038;-71
2022/06/07 13:37:27;;;;;;;2.53;1.02;;;43.00;14.50;;;;;;6210584;28;20076;-72
2022/06/07 13:40:31;;;;;;;0.93;0.65;;;43.30;14.30;;;;;;6194209;28;20070;-72
2022/06/07 13:43:35;;;;;;;0.82;0.70;;;43.80;14.10;;;;;;6188483;28;20022;-72
2022/06/07 13:46:52;;;;;;;0.60;0.60;;;44.20;13.90;;;;;;6227597;28;20027;-70
2022/06/07 13:53:30;;;;;;;0.55;0.50;;;44.80;13.50;;;;;;6207947;28;20378;-72
2022/06/07 13:56:31;;;;;;;1.83;0.65;;;45.10;13.20;;;;;;6217060;28;20124;-71
2022/06/07 13:59:32;;;;;;;1.52;0.60;;;45.20;13.30;;;;;;6210358;28;20022;-71
2022/06/07 14:02:34;;;;;;;3.13;0.70;;;45.20;13.30;;;;;;6215925;28;20430;-71
2022/06/07 14:05:34;;;;;;;1.08;0.60;;;45.10;13.40;;;;;;6210839;28;20343;-72
2022/06/07 14:08:36;;;;;;;4.78;0.70;;;45.10;13.40;;;;;;6211897;28;20048;-72
2022/06/07 14:11:37;;;;;;;0.70;0.70;;;45.30;13.50;;;;;;6213571;28;20627;-72
2022/06/07 14:14:38;;;;;;;4.40;0.80;;;45.60;13.30;;;;;;6241180;28;20571;-72
2022/06/07 14:17:42;;;;;;;2.60;1.00;;;45.90;13.20;;;;;;6242510;28;20045;-72
2022/06/07 14:20:47;;;;;;;4.47;0.70;;;45.90;13.10;;;;;;6211243;28;20153;-72
2022/06/07 14:23:48;;;;;;;1.75;0.82;;;46.00;13.10;;;;;;6219026;28;20112;-72
2022/06/07 14:26:49;;;;;;;1.65;0.75;;;46.10;12.90;;;;;;6252805;28;20467;-72
2022/06/07 14:29:53;;;;;;;4.93;0.60;;;46.20;13.00;;;;;;6244612;28;20344;-72
2022/06/07 14:32:57;;;;;;;0.60;0.55;;;46.20;12.90;;;;;;6241632;28;20052;-72
2022/06/07 14:36:00;;;;;;;3.58;0.60;;;46.10;12.70;;;;;;6263021;28;20049;-72
2022/06/07 14:39:02;;;;;;;2.97;1.20;;;46.10;12.70;;;;;;6256750;28;20040;-72
2022/06/07 14:42:03;;;;;;;0.60;0.60;;;46.00;12.70;;;;;;6243244;28;20419;-71
2022/06/07 14:45:06;;;;;;;6.97;0.60;;;45.80;12.70;;;;;;6250540;28;20033;-72
2022/06/07 14:48:14;;;;;;;0.70;0.70;;;45.50;12.80;;;;;;6237913;28;20037;-71
2022/06/07 14:51:27;;;;;;;2.03;0.95;;;45.60;12.90;;;;;;6240014;28;20029;-70
2022/06/07 14:54:33;;;;;;;1.15;0.80;;;45.70;12.90;;;;;;6240204;28;20469;-71
2022/06/07 14:57:35;;;;;;;1.95;0.68;;;45.80;12.90;;;;;;6252096;28;20064;-71
2022/06/07 15:00:38;;;;;;;1.98;0.80;;;45.40;13.00;;;;;;6239392;28;20033;-70
2022/06/07 15:03:40;;;;;;;1.75;0.80;;;44.90;13.30;;;;;;6255969;28;20022;-71
2022/06/07 15:06:42;;;;;;;0.80;0.68;;;44.70;13.60;;;;;;6271066;28;20029;-72
2022/06/07 15:09:48;;;;;;;3.50;0.80;;;44.70;13.50;;;;;;6242560;28;20022;-71
2022/06/07 15:12:49;;;;;;;0.80;0.80;;;44.70;13.40;;;;;;6261818;28;20035;-71
2022/06/07 15:15:52;;;;;;;1.05;0.73;;;44.90;13.30;;;;;;6247549;28;20079;-72
2022/06/07 15:18:54;;;;;;;4.32;0.90;;;45.00;13.20;;;;;;6235755;28;20030;-71
2022/06/07 15:21:57;;;;;;;1.05;0.75;;;45.00;13.20;;;;;;6247049;28;20022;-71
2022/06/07 15:25:00;;;;;;;1.42;0.70;;;44.50;13.40;;;;;;6256079;28;20045;-72
2022/06/07 15:28:01;;;;;;;1.10;0.70;;;44.10;13.60;;;;;;6246472;28;20057;-72
2022/06/07 15:31:02;;;;;;;1.35;0.73;;;44.00;13.60;;;;;;6270292;28;20029;-72
2022/06/07 15:34:10;;;;;;;1.20;0.70;;;43.80;13.50;;;;;;6246490;28;20470;-71
2022/06/07 15:37:11;;;;;;;1.27;0.80;;;43.60;13.70;;;;;;6248846;28;20116;-72
2022/06/07 15:40:14;;;;;;;2.17;0.70;;;43.40;13.80;;;;;;6236892;28;20048;-71
2022/06/07 15:43:17;;;;;;;8.02;0.80;;;43.60;13.80;;;;;;6242502;28;20064;-72
2022/06/07 15:46:18;;;;;;;1.85;0.80;;;43.60;13.80;;;;;;6280055;28;20029;-72
2022/06/07 15:49:19;;;;;;;1.00;0.80;;;43.50;13.80;;;;;;6262047;28;20087;-72
2022/06/07 15:52:20;;;;;;;1.50;0.70;;;43.40;14.00;;;;;;6244604;28;20163;-72
2022/06/07 15:55:21;;;;;;;2.10;0.95;;;43.30;14.10;;;;;;6236722;28;20057;-72
2022/06/07 16:01:43;;;;;;;1.50;0.73;;;42.90;13.70;;;;;;6240566;28;20038;-71
2022/06/07 16:04:44;;;;;;;5.45;0.70;;;42.40;13.90;;;;;;6244069;28;20052;-71
2022/06/07 16:07:45;;;;;;;1.33;0.80;;;42.30;14.00;;;;;;6247446;28;20033;-71
2022/06/07 16:10:47;;;;;;;1.38;0.60;;;42.10;14.00;;;;;;6255594;28;20125;-71
2022/06/07 16:13:48;;;;;;;0.90;0.73;;;41.80;14.30;;;;;;6257870;28;20116;-72
2022/06/07 16:16:49;;;;;;;1.63;0.90;;;41.60;14.60;;;;;;6237049;28;20091;-72
2022/06/07 16:19:51;;;;;;;1.75;1.40;;;41.30;14.90;;;;;;6245802;28;20021;-73
2022/06/07 16:22:52;;;;;;;1.48;0.73;;;41.30;15.10;;;;;;6236972;28;20058;-71
2022/06/07 16:25:53;;;;;;;1.90;0.93;;;41.10;15.30;;;;;;6264188;28;20048;-71
2022/06/07 16:35:35;;;;;;;3.15;0.90;;;40.80;15.40;;;;;;6241883;28;20487;-71
2022/06/07 16:38:40;;;;;;;1.45;0.90;;;40.40;15.50;;;;;;6241970;28;20033;-72
2022/06/07 16:41:42;;;;;;;1.45;1.00;;;40.40;15.80;;;;;;6258604;28;20092;-72
2022/06/07 16:44:44;;;;;;;0.68;0.65;;;40.30;15.70;;;;;;6271488;28;20044;-72
2022/06/07 16:47:54;;;;;;;1.30;0.70;;;39.90;15.80;;;;;;6239020;28;20118;-72
2022/06/07 16:50:55;;;;;;;2.70;1.10;;;39.10;16.30;;;;;;6232239;28;20464;-72
2022/06/07 16:58:22;;;;;;;1.27;0.95;;;38.40;16.70;;;;;;6251051;28;20350;-69
2022/06/07 17:01:25;;;;;;;2.05;0.98;;;37.10;17.60;;;;;;6242642;28;20045;-71
2022/06/07 17:04:26;;;;;;;3.53;0.70;;;36.00;18.10;;;;;;6229010;28;20648;-72
2022/06/07 17:07:27;;;;;;;0.57;0.57;;;34.90;18.70;;;;;;6242809;28;20025;-71
2022/06/07 17:10:28;;;;;;;0.70;0.70;;;34.00;19.40;;;;;;6238019;28;20038;-71
2022/06/07 17:13:30;;;;;;;0.75;0.70;;;33.20;20.20;;;;;;6275577;28;20091;-71
2022/06/07 17:16:34;;;;;;;1.25;0.80;;;32.60;20.70;;;;;;6251758;28;20056;-71
2022/06/07 17:23:58;;;;;;;4.57;0.95;;;31.70;21.80;;;;;;6239864;28;20120;-70
2022/06/07 17:26:59;;;;;;;2.92;0.70;;;31.20;22.30;;;;;;6261489;28;20052;-72
2022/06/07 17:30:00;;;;;;;4.15;0.90;;;30.90;22.70;;;;;;6242815;28;20372;-71
2022/06/07 17:33:02;;;;;;;2.45;1.17;;;30.60;23.00;;;;;;6244792;28;20036;-71
2022/06/07 17:36:05;;;;;;;1.42;0.90;;;30.30;23.50;;;;;;6247065;28;20128;-71
2022/06/07 17:39:10;;;;;;;8.70;1.08;;;30.10;23.80;;;;;;6241310;28;20069;-71
2022/06/07 17:42:11;;;;;;;2.50;0.88;;;29.90;24.00;;;;;;6245009;28;20014;-72
2022/06/07 17:45:12;;;;;;;1.05;0.60;;;29.80;24.20;;;;;;6243411;28;20168;-71
2022/06/07 17:48:13;;;;;;;1.08;0.70;;;29.70;24.40;;;;;;6259410;28;20029;-70
2022/06/07 17:51:17;;;;;;;1.85;0.73;;;29.70;24.60;;;;;;6245848;28;20040;-71
2022/06/07 17:54:18;;;;;;;1.48;0.80;;;29.50;24.80;;;;;;6225406;28;20022;-70
2022/06/07 17:57:21;;;;;;;0.68;0.68;;;29.30;25.30;;;;;;6253924;28;20514;-71
2022/06/07 18:00:27;;;;;;;3.15;0.80;;;29.20;25.60;;;;;;6282641;28;20041;-70
2022/06/07 18:03:30;;;;;;;1.42;0.90;;;29.10;25.90;;;;;;6275507;28;20022;-71
2022/06/07 18:06:31;;;;;;;1.92;0.95;;;28.90;26.10;;;;;;6245063;28;20025;-72
2022/06/07 18:09:33;;;;;;;14.27;0.82;;;28.80;26.20;;;;;;6234890;28;20033;-71
2022/06/07 18:12:34;;;;;;;2.97;0.90;;;28.70;26.40;;;;;;6255457;28;20095;-71
2022/06/07 18:15:40;;;;;;;3.90;0.75;;;28.60;26.50;;;;;;6246667;28;20083;-71
2022/06/07 18:18:41;;;;;;;3.08;1.13;;;28.60;26.60;;;;;;6246639;28;20460;-71
2022/06/07 18:21:42;;;;;;;0.90;0.80;;;28.50;26.70;;;;;;6240160;28;20060;-72
2022/06/07 18:24:43;;;;;;;2.95;0.90;;;28.50;26.90;;;;;;6258649;28;20045;-71
2022/06/07 18:27:46;;;;;;;0.68;0.65;;;28.50;27.20;;;;;;6244539;28;20440;-71
2022/06/07 18:30:49;;;;;;;0.85;0.80;;;28.30;27.30;;;;;;6243324;28;20044;-70
2022/06/07 18:33:50;;;;;;;1.35;0.80;;;28.20;27.60;;;;;;6267259;28;20033;-70
2022/06/07 18:36:52;;;;;;;0.88;0.80;;;28.10;27.80;;;;;;6243507;28;20037;-70
2022/06/07 18:39:54;;;;;;;0.50;0.50;;;28.00;28.00;;;;;;6244341;28;20097;-70
2022/06/07 18:42:56;;;;;;;0.85;0.65;;;27.90;28.30;;;;;;6245163;28;20073;-71
2022/06/07 18:45:58;;;;;;;5.88;0.98;;;27.80;28.50;;;;;;6257103;28;20026;-71
2022/06/07 18:48:59;;;;;;;3.78;1.00;;;27.80;28.80;;;;;;6243795;28;20034;-71
2022/06/07 18:52:02;;;;;;;1.17;0.90;;;27.70;28.90;;;;;;6241974;28;20021;-71
2022/06/07 18:55:07;;;;;;;3.05;0.80;;;27.60;29.00;;;;;;6266483;28;20124;-71
2022/06/07 18:58:08;;;;;;;4.03;0.77;;;27.60;29.10;;;;;;6261179;28;20129;-71
2022/06/07 19:01:24;;;;;;;8.30;1.00;;;27.50;29.20;;;;;;6246855;28;20025;-71
2022/06/07 19:04:26;;;;;;;2.90;0.85;;;27.40;29.40;;;;;;6244497;28;20033;-70
2022/06/07 19:07:27;;;;;;;9.30;1.10;;;27.40;29.70;;;;;;6235983;28;20033;-71
2022/06/07 19:10:33;;;;;;;0.85;0.70;;;27.30;29.80;;;;;;6239522;28;20096;-70
2022/06/07 19:13:34;;;;;;;3.58;0.82;;;27.30;30.00;;;;;;6237665;28;20418;-69
2022/06/07 19:16:35;;;;;;;1.77;1.10;;;27.20;30.10;;;;;;6240542;28;20041;-71
2022/06/07 19:19:37;;;;;;;2.75;0.70;;;27.10;30.00;;;;;;6245692;28;20056;-71
2022/06/07 19:22:39;;;;;;;1.52;0.75;;;27.00;30.10;;;;;;6243126;28;20052;-71
2022/06/07 19:25:45;;;;;;;6.00;1.08;;;27.00;30.40;;;;;;6244024;28;20121;-71
2022/06/07 19:28:47;;;;;;;3.45;1.00;;;26.90;30.50;;;;;;6260224;28;20035;-71
2022/06/07 19:31:48;;;;;;;3.00;0.80;;;26.80;30.60;;;;;;6247834;28;20037;-70
2022/06/07 19:34:51;;;;;;;1.35;0.80;;;26.80;30.80;;;;;;6248036;28;20127;-71
2022/06/07 19:37:55;;;;;;;1.70;0.75;;;26.70;31.00;;;;;;6231709;28;20033;-70
2022/06/07 19:40:57;;;;;;;2.20;0.70;;;26.60;31.00;;;;;;6269736;28;20029;-70
2022/06/07 19:43:58;;;;;;;4.47;1.23;;;26.60;31.10;;;;;;6244808;28;20087;-71
2022/06/07 19:46:59;;;;;;;1.15;0.57;;;26.50;31.20;;;;;;6244314;28;20045;-71
2022/06/07 19:50:00;;;;;;;1.17;0.73;;;26.50;31.30;;;;;;6275978;28;20021;-70
2022/06/07 19:53:05;;;;;;;4.18;0.70;;;26.40;31.10;;;;;;6244642;28;20025;-68
2022/06/07 19:56:08;;;;;;;2.13;1.00;;;26.30;31.10;;;;;;6269335;28;20029;-69
2022/06/07 19:59:09;;;;;;;2.35;0.95;;;26.30;31.10;;;;;;6243992;28;20033;-70